createdAt,value
2023-05-18T01:41:51.965Z,7.01
2023-05-18T01:46:51.744Z,7.41
2023-05-18T01:51:51.669Z,7.55
2023-05-18T01:56:53.351Z,6.98
2023-05-18T02:01:51.549Z,6.30
2023-05-18T02:06:52.410Z,6.16
2023-05-18T02:11:51.327Z,5.96
2023-05-18T02:16:51.312Z,5.89
2023-05-18T02:21:51.199Z,5.96
2023-05-18T02:26:51.329Z,6.14
2023-05-18T02:31:54.227Z,6.01
2023-05-18T02:36:51.040Z,5.66
2023-05-18T02:41:50.996Z,5.95
2023-05-18T02:46:50.866Z,5.92
2023-05-18T02:51:51.237Z,5.57
2023-05-18T02:56:50.864Z,5.67
2023-05-18T03:01:50.865Z,5.67
2023-05-18T03:06:50.648Z,5.86
2023-05-18T03:11:50.672Z,6.18
2023-05-18T03:16:51.394Z,6.28
2023-05-18T03:21:50.482Z,6.18
2023-05-18T03:26:50.374Z,5.93
2023-05-18T03:31:53.399Z,6.06
2023-05-18T03:36:50.251Z,5.92
2023-05-18T03:41:50.322Z,6.44
2023-05-18T03:46:50.208Z,6.72
2023-05-18T03:51:50.116Z,6.58
2023-05-18T03:56:50.031Z,7.08
2023-05-18T04:01:50.537Z,7.23
2023-05-18T04:06:49.864Z,7.75
2023-05-18T04:11:49.873Z,8.51
2023-05-18T04:16:49.805Z,8.62
2023-05-18T04:21:49.709Z,9.02
2023-05-18T04:26:49.616Z,9.91
2023-05-18T04:31:52.619Z,9.97
2023-05-18T04:36:49.468Z,10.74
2023-05-18T04:41:49.466Z,12.30
2023-05-18T04:46:49.331Z,13.69
2023-05-18T04:51:49.283Z,14.28
2023-05-18T04:56:49.197Z,14.13
2023-05-18T05:01:49.259Z,14.60
2023-05-18T05:06:49.067Z,14.74
2023-05-18T05:11:49.121Z,15.36
2023-05-18T05:16:48.947Z,15.99
2023-05-18T05:21:48.923Z,16.06
2023-05-18T05:26:48.773Z,16.48
2023-05-18T05:31:51.849Z,16.75
2023-05-18T05:36:48.672Z,16.80
2023-05-18T05:41:48.736Z,16.89
2023-05-18T05:46:48.753Z,15.17
2023-05-18T05:51:48.655Z,16.68
2023-05-18T05:56:48.482Z,17.18
2023-05-18T06:01:48.556Z,17.95
2023-05-18T06:06:48.349Z,15.96
2023-05-18T06:11:48.284Z,15.81
2023-05-18T06:16:48.218Z,15.30
2023-05-18T06:21:48.241Z,16.78
2023-05-18T06:26:47.994Z,18.83
2023-05-18T06:31:51.041Z,18.13
2023-05-18T06:36:47.904Z,19.06
2023-05-18T06:41:47.872Z,19.47
2023-05-18T06:46:47.770Z,16.74
2023-05-18T06:51:47.739Z,17.50
2023-05-18T06:56:48.524Z,18.62
2023-05-18T07:01:47.789Z,20.05
2023-05-18T07:06:47.766Z,17.22
2023-05-18T07:11:47.510Z,18.47
2023-05-18T07:16:47.399Z,18.03
2023-05-18T07:21:47.338Z,19.32
2023-05-18T07:26:47.264Z,21.13
2023-05-18T07:31:50.331Z,20.66
2023-05-18T07:36:47.105Z,21.05
2023-05-18T07:41:47.057Z,19.91
2023-05-18T07:46:47.038Z,20.58
2023-05-18T07:51:47.034Z,22.31
2023-05-18T07:56:46.886Z,21.60
2023-05-18T08:01:46.906Z,19.46
2023-05-18T08:06:46.705Z,19.72
2023-05-18T08:11:46.709Z,19.90
2023-05-18T08:16:46.623Z,19.72
2023-05-18T08:21:46.741Z,17.71
2023-05-18T08:26:46.620Z,17.64
2023-05-18T08:31:50.162Z,16.26
2023-05-18T08:36:46.496Z,16.60
2023-05-18T08:41:46.415Z,16.50
2023-05-18T08:46:46.345Z,16.35
2023-05-18T08:51:46.221Z,16.37
2023-05-18T08:56:46.054Z,16.85
2023-05-18T09:01:46.026Z,16.89
2023-05-18T09:06:45.922Z,16.65
2023-05-18T09:11:45.878Z,15.93
2023-05-18T09:16:45.783Z,15.81
2023-05-18T09:21:45.769Z,16.15
2023-05-18T09:26:45.651Z,16.73
2023-05-18T09:31:48.771Z,15.35
2023-05-18T09:36:45.639Z,15.78
2023-05-18T09:41:45.751Z,15.61
2023-05-18T09:46:45.421Z,15.99
2023-05-18T09:51:45.396Z,15.60
2023-05-18T09:56:50.021Z,15.48
2023-05-18T10:01:46.305Z,15.67
2023-05-18T10:06:45.138Z,14.90
2023-05-18T10:11:45.112Z,15.61
2023-05-18T10:16:45.062Z,16.25
2023-05-18T10:21:44.959Z,15.54
2023-05-18T10:26:44.861Z,15.28
2023-05-18T10:31:47.848Z,16.04
2023-05-18T10:36:44.753Z,16.86
2023-05-18T10:41:44.706Z,16.00
2023-05-18T10:46:44.686Z,16.03
2023-05-18T10:51:44.732Z,16.86
2023-05-18T10:56:44.487Z,17.07
2023-05-18T11:01:44.565Z,15.60
2023-05-18T11:06:44.386Z,15.76
2023-05-18T11:11:44.307Z,16.80
2023-05-18T11:16:44.392Z,18.24
2023-05-18T11:21:44.210Z,16.95
2023-05-18T11:26:44.110Z,16.83
2023-05-18T11:31:47.076Z,17.13
2023-05-18T11:36:43.983Z,16.01
2023-05-18T11:41:43.934Z,16.80
2023-05-18T11:46:43.881Z,16.65
2023-05-18T11:51:43.852Z,16.59
2023-05-18T11:56:43.703Z,17.23
2023-05-18T12:01:43.802Z,17.14
2023-05-18T12:06:43.630Z,17.11
2023-05-18T12:11:43.537Z,18.09
2023-05-18T12:16:43.461Z,17.95
2023-05-18T12:21:43.397Z,18.70
2023-05-18T12:26:43.282Z,18.15
2023-05-18T12:31:46.261Z,17.59
2023-05-18T12:36:43.183Z,17.69
2023-05-18T12:41:43.145Z,17.38
2023-05-18T12:46:43.058Z,17.62
2023-05-18T12:51:43.002Z,17.66
2023-05-18T12:56:42.902Z,18.70
2023-05-18T13:01:43.009Z,16.83
2023-05-18T13:06:42.830Z,18.31
2023-05-18T13:11:42.830Z,18.84
2023-05-18T13:16:42.799Z,17.23
2023-05-18T13:21:42.645Z,17.55
2023-05-18T13:26:42.543Z,18.22
2023-05-18T13:31:45.550Z,18.43
2023-05-18T13:36:42.396Z,17.15
2023-05-18T13:41:42.352Z,17.33
2023-05-18T13:46:42.390Z,17.36
2023-05-18T13:51:42.282Z,17.79
2023-05-18T13:56:42.171Z,17.69
2023-05-18T14:01:42.142Z,17.40
2023-05-18T14:06:41.975Z,17.97
2023-05-18T14:11:41.970Z,18.31
2023-05-18T14:16:41.919Z,17.81
2023-05-18T14:21:41.906Z,17.41
2023-05-18T14:26:41.741Z,17.97
2023-05-18T14:31:45.674Z,17.74
2023-05-18T14:36:41.605Z,17.44
2023-05-18T14:41:41.622Z,17.79
2023-05-18T14:46:41.525Z,17.15
2023-05-18T14:51:41.424Z,17.36
2023-05-18T14:56:41.341Z,17.85
2023-05-18T15:01:41.349Z,17.20
2023-05-18T15:06:41.219Z,17.85
2023-05-18T15:11:41.205Z,17.23
2023-05-18T15:16:41.272Z,18.03
2023-05-18T15:21:41.060Z,17.81
2023-05-18T15:26:40.933Z,18.09
2023-05-18T15:31:44.016Z,16.68
2023-05-18T15:36:40.804Z,16.80
2023-05-18T15:41:40.807Z,17.14
2023-05-18T15:46:40.730Z,17.29
2023-05-18T15:51:40.676Z,17.18
2023-05-18T15:56:40.567Z,16.73
2023-05-18T16:01:40.557Z,16.75
2023-05-18T16:06:40.428Z,16.93
2023-05-18T16:11:40.432Z,17.26
2023-05-18T16:16:40.365Z,17.00
2023-05-18T16:21:40.251Z,16.74
2023-05-18T16:26:40.352Z,16.81
2023-05-18T16:31:43.213Z,17.15
2023-05-18T16:36:40.044Z,16.74
2023-05-18T16:41:40.202Z,16.96
2023-05-18T16:46:39.927Z,17.25
2023-05-18T16:51:39.906Z,16.98
2023-05-18T16:56:39.780Z,16.81
2023-05-18T17:01:39.803Z,16.92
2023-05-18T17:06:39.633Z,17.10
2023-05-18T17:11:39.622Z,16.93
2023-05-18T17:16:39.521Z,17.15
2023-05-18T17:21:39.496Z,17.46
2023-05-18T17:26:39.364Z,17.29
2023-05-18T17:31:42.367Z,16.75
2023-05-18T17:36:39.260Z,16.45
2023-05-18T17:41:39.221Z,16.86
2023-05-18T17:46:39.193Z,16.93
2023-05-18T17:51:39.362Z,16.56
2023-05-18T17:56:39.017Z,17.00
2023-05-18T18:01:39.206Z,16.83
2023-05-18T18:06:38.894Z,16.48
2023-05-18T18:11:38.893Z,16.12
2023-05-18T18:16:38.796Z,15.97
2023-05-18T18:21:38.699Z,15.86
2023-05-18T18:26:38.605Z,16.16
2023-05-18T18:31:41.614Z,16.20
2023-05-18T18:36:38.451Z,15.85
2023-05-18T18:41:38.428Z,15.72
2023-05-18T18:46:38.354Z,15.81
2023-05-18T18:51:38.279Z,15.59
2023-05-18T18:56:38.194Z,15.48
2023-05-18T19:01:38.323Z,15.43
2023-05-18T19:06:38.088Z,15.43
2023-05-18T19:11:38.078Z,15.24
2023-05-18T19:16:38.026Z,14.65
2023-05-18T19:21:37.882Z,14.52
2023-05-18T19:26:37.812Z,14.42
2023-05-18T19:31:40.887Z,14.21
2023-05-18T19:36:37.709Z,13.80
2023-05-18T19:41:37.629Z,13.61
2023-05-18T19:46:37.684Z,13.07
2023-05-18T19:51:37.565Z,12.74
2023-05-18T19:56:37.453Z,12.45
2023-05-18T20:01:37.468Z,12.29
2023-05-18T20:06:37.298Z,12.13
2023-05-18T20:11:37.314Z,11.87
2023-05-18T20:16:37.254Z,11.97
2023-05-18T20:21:37.106Z,11.89
2023-05-18T20:26:37.046Z,11.62
2023-05-18T20:31:40.051Z,11.59
2023-05-18T20:36:36.915Z,11.35
2023-05-18T20:41:36.865Z,11.71
2023-05-18T20:46:36.851Z,12.20
2023-05-18T20:51:36.709Z,12.02
2023-05-18T20:56:36.606Z,11.87
2023-05-18T21:01:36.719Z,11.64
2023-05-18T21:06:36.461Z,11.52
2023-05-18T21:11:36.704Z,11.54
2023-05-18T21:16:36.517Z,11.57
2023-05-18T21:21:36.326Z,11.72
2023-05-18T21:26:36.206Z,11.43
2023-05-18T21:31:39.270Z,11.29
2023-05-18T21:36:36.108Z,11.36
2023-05-18T21:41:36.117Z,11.68
2023-05-18T21:46:36.008Z,11.74
2023-05-18T21:51:35.956Z,11.75
2023-05-18T21:56:35.850Z,11.64
2023-05-18T22:01:35.950Z,11.53
2023-05-18T22:06:35.719Z,11.49
2023-05-18T22:11:35.673Z,11.47
2023-05-18T22:16:35.630Z,11.75
2023-05-18T22:21:35.779Z,11.64
2023-05-18T22:26:35.439Z,11.46
2023-05-18T22:31:38.448Z,11.54
2023-05-18T22:36:35.354Z,11.35
2023-05-18T22:41:35.291Z,11.62
2023-05-18T22:46:35.189Z,11.96
2023-05-18T22:51:35.115Z,11.78
2023-05-18T22:56:35.010Z,11.74
2023-05-18T23:01:35.123Z,11.75
2023-05-18T23:06:34.882Z,11.94
2023-05-18T23:11:34.853Z,11.80
2023-05-18T23:16:34.787Z,11.56
2023-05-18T23:21:34.837Z,11.52
2023-05-18T23:26:34.651Z,11.50
2023-05-18T23:31:37.807Z,11.56
2023-05-18T23:36:34.524Z,11.28
2023-05-18T23:41:34.477Z,11.31
2023-05-18T23:46:34.444Z,11.64
2023-05-18T23:51:34.398Z,11.74
2023-05-18T23:56:34.260Z,11.43
